createdAt,value
2019-03-10T00:01:03.106Z,2.15
2019-03-10T00:03:31.917Z,1.70
2019-03-10T00:06:00.949Z,2.00
2019-03-10T00:08:29.911Z,2.08
2019-03-10T00:10:58.835Z,2.00
2019-03-10T00:13:27.635Z,2.20
2019-03-10T00:15:56.643Z,2.20
2019-03-10T00:18:25.509Z,2.12
2019-03-10T00:20:54.513Z,2.37
2019-03-10T00:23:23.327Z,2.12
2019-03-10T00:26:13.011Z,1.80
2019-03-10T00:28:42.033Z,2.17
2019-03-10T00:31:11.068Z,1.95
2019-03-10T00:33:40.018Z,2.20
2019-03-10T00:36:09.065Z,1.87
2019-03-10T00:39:05.398Z,1.95
2019-03-10T00:41:55.154Z,2.45
2019-03-10T00:44:48.317Z,2.00
2019-03-10T00:47:57.458Z,1.98
2019-03-10T00:51:00.349Z,2.10
2019-03-10T00:53:29.225Z,2.02
2019-03-10T00:55:58.185Z,2.05
2019-03-10T00:58:27.081Z,2.00
2019-03-10T01:00:56.183Z,1.95
2019-03-10T01:03:25.142Z,2.30
2019-03-10T01:05:54.167Z,1.80
2019-03-10T01:08:22.988Z,2.20
2019-03-10T01:10:52.036Z,1.65
2019-03-10T01:13:20.950Z,2.37
2019-03-10T01:15:50.046Z,2.40
2019-03-10T01:18:19.854Z,1.92
2019-03-10T01:20:48.999Z,2.00
2019-03-10T01:23:18.112Z,2.20
2019-03-10T01:25:47.110Z,2.27
2019-03-10T01:28:16.045Z,2.30
2019-03-10T01:30:49.874Z,2.00
2019-03-10T01:34:04.394Z,2.17
2019-03-10T01:36:31.906Z,1.90
2019-03-10T01:39:00.960Z,1.90
2019-03-10T01:41:30.185Z,2.10
2019-03-10T01:43:59.127Z,2.00
2019-03-10T01:46:28.229Z,1.90
2019-03-10T01:48:57.221Z,2.60
2019-03-10T01:51:26.265Z,1.80
2019-03-10T01:53:55.300Z,2.10
2019-03-10T01:56:24.178Z,2.05
2019-03-10T01:58:53.193Z,1.82
2019-03-10T02:01:22.194Z,2.02
2019-03-10T02:03:51.095Z,2.00
2019-03-10T02:06:19.991Z,2.30
2019-03-10T02:08:48.926Z,1.75
2019-03-10T02:11:17.929Z,1.90
2019-03-10T02:14:07.809Z,1.95
2019-03-10T02:16:36.643Z,2.00
2019-03-10T02:19:05.624Z,1.70
2019-03-10T02:21:35.533Z,2.00
2019-03-10T02:24:04.344Z,1.95
2019-03-10T02:26:33.426Z,1.95
2019-03-10T02:29:02.686Z,1.87
2019-03-10T02:31:31.697Z,2.02
2019-03-10T02:34:00.636Z,2.10
2019-03-10T02:36:29.789Z,1.85
2019-03-10T02:38:58.747Z,1.70
2019-03-10T02:41:46.746Z,1.95
2019-03-10T02:44:15.846Z,2.27
2019-03-10T02:46:44.860Z,2.00
2019-03-10T02:49:13.858Z,1.70
2019-03-10T02:51:42.797Z,2.00
2019-03-10T02:54:30.858Z,1.60
2019-03-10T02:57:18.782Z,1.98
2019-03-10T02:59:47.627Z,2.12
2019-03-10T03:02:16.550Z,1.65
2019-03-10T03:04:45.560Z,1.70
2019-03-10T03:07:33.866Z,1.92
2019-03-10T03:10:02.913Z,2.30
2019-03-10T03:12:31.969Z,1.87
2019-03-10T03:15:00.826Z,2.12
2019-03-10T03:17:29.611Z,1.80
2019-03-10T03:19:58.628Z,2.10
2019-03-10T03:22:27.561Z,1.80
2019-03-10T03:24:56.972Z,1.85
2019-03-10T03:27:25.801Z,1.90
2019-03-10T03:29:56.500Z,1.80
2019-03-10T03:32:25.443Z,2.02
2019-03-10T03:35:15.117Z,2.00
2019-03-10T03:37:44.122Z,1.72
2019-03-10T03:40:13.137Z,1.80
2019-03-10T03:42:42.088Z,1.92
2019-03-10T03:45:11.077Z,1.87
2019-03-10T03:47:40.087Z,2.12
2019-03-10T03:50:09.150Z,1.92
2019-03-10T03:52:57.246Z,1.80
2019-03-10T03:55:26.270Z,2.30
2019-03-10T03:57:55.142Z,1.80
2019-03-10T04:00:24.207Z,1.90
2019-03-10T04:03:12.299Z,1.92
2019-03-10T04:05:41.207Z,1.70
2019-03-10T04:08:10.256Z,2.30
2019-03-10T04:10:39.319Z,2.10
2019-03-10T04:13:08.259Z,1.60
2019-03-10T04:15:37.293Z,1.60
2019-03-10T04:18:06.268Z,1.85
2019-03-10T04:20:54.322Z,1.70
2019-03-10T04:23:23.211Z,2.05
2019-03-10T04:25:52.178Z,2.17
2019-03-10T04:28:21.093Z,2.00
2019-03-10T04:30:50.275Z,2.10
2019-03-10T04:33:19.290Z,1.90
2019-03-10T04:36:07.160Z,1.92
2019-03-10T04:38:36.067Z,1.85
2019-03-10T04:41:05.280Z,2.05
2019-03-10T04:43:34.209Z,1.72
2019-03-10T04:46:03.263Z,2.08
2019-03-10T04:48:32.169Z,2.27
2019-03-10T04:51:01.454Z,1.87
2019-03-10T04:53:30.503Z,2.17
2019-03-10T04:56:40.576Z,1.80
2019-03-10T04:59:09.482Z,1.52
2019-03-10T05:01:38.442Z,2.10
2019-03-10T05:04:07.237Z,1.72
2019-03-10T05:06:36.254Z,1.92
2019-03-10T05:09:08.579Z,1.92
2019-03-10T05:11:37.492Z,1.70
2019-03-10T05:14:06.628Z,2.27
2019-03-10T05:16:36.654Z,1.85
2019-03-10T05:19:05.625Z,1.77
2019-03-10T05:21:34.634Z,2.10
2019-03-10T05:24:09.209Z,1.90
2019-03-10T05:26:38.452Z,2.20
2019-03-10T05:29:07.344Z,1.70
2019-03-10T05:31:36.463Z,1.70
2019-03-10T05:34:05.673Z,1.67
2019-03-10T05:36:34.611Z,2.20
2019-03-10T05:39:04.723Z,2.00
2019-03-10T05:41:33.725Z,2.00
2019-03-10T05:44:02.734Z,2.50
2019-03-10T05:46:31.800Z,1.75
2019-03-10T05:49:00.747Z,2.47
2019-03-10T05:51:29.789Z,1.98
2019-03-10T05:53:58.786Z,1.80
2019-03-10T05:56:27.811Z,1.95
2019-03-10T05:58:56.738Z,1.95
2019-03-10T06:01:25.545Z,2.02
2019-03-10T06:03:54.442Z,1.90
2019-03-10T06:06:23.350Z,1.70
2019-03-10T06:08:52.357Z,1.82
2019-03-10T06:11:21.598Z,2.10
2019-03-10T06:13:50.710Z,1.80
2019-03-10T06:16:19.743Z,1.70
2019-03-10T06:18:48.717Z,2.20
2019-03-10T06:21:17.653Z,1.95
2019-03-10T06:23:46.655Z,1.92
2019-03-10T06:26:15.666Z,2.22
2019-03-10T06:28:44.781Z,1.75
2019-03-10T06:31:13.952Z,2.00
2019-03-10T06:33:42.788Z,2.30
2019-03-10T06:36:11.808Z,2.25
2019-03-10T06:38:40.810Z,2.42
2019-03-10T06:41:10.045Z,2.12
2019-03-10T06:43:39.067Z,2.10
2019-03-10T06:46:09.529Z,2.12
2019-03-10T06:48:38.734Z,2.10
2019-03-10T06:51:08.010Z,2.50
2019-03-10T06:53:37.474Z,2.52
2019-03-10T06:56:06.353Z,1.80
2019-03-10T06:58:35.155Z,2.08
2019-03-10T07:01:04.147Z,2.50
2019-03-10T07:03:33.185Z,2.20
2019-03-10T07:06:02.192Z,2.02
2019-03-10T07:08:32.687Z,2.75
2019-03-10T07:11:01.755Z,2.60
2019-03-10T07:13:30.689Z,2.42
2019-03-10T07:15:59.607Z,2.50
2019-03-10T07:18:28.725Z,2.35
2019-03-10T07:20:57.961Z,2.58
2019-03-10T07:23:26.992Z,2.40
2019-03-10T07:26:08.354Z,2.40
2019-03-10T07:28:56.699Z,2.25
2019-03-10T07:31:29.563Z,2.87
2019-03-10T07:34:06.304Z,2.70
2019-03-10T07:36:53.118Z,2.35
2019-03-10T07:39:34.072Z,2.42
2019-03-10T07:42:28.168Z,2.80
2019-03-10T07:45:13.374Z,2.15
2019-03-10T07:47:59.818Z,3.17
2019-03-10T07:51:06.991Z,2.42
2019-03-10T07:54:03.776Z,2.72
2019-03-10T07:56:54.752Z,2.67
2019-03-10T07:59:54.851Z,2.80
2019-03-10T08:02:51.783Z,2.62
2019-03-10T08:05:31.363Z,2.87
2019-03-10T08:08:13.204Z,2.87
2019-03-10T08:11:09.622Z,2.30
2019-03-10T08:13:57.547Z,2.17
2019-03-10T08:16:51.253Z,2.25
2019-03-10T08:19:51.152Z,2.60
2019-03-10T08:22:47.143Z,2.33
2019-03-10T08:25:38.309Z,2.58
2019-03-10T08:28:33.771Z,2.70
2019-03-10T08:31:42.795Z,2.10
2019-03-10T08:34:30.693Z,2.50
2019-03-10T08:37:17.705Z,2.30
2019-03-10T08:40:17.738Z,2.20
2019-03-10T08:43:17.520Z,2.30
2019-03-10T08:45:53.108Z,2.20
2019-03-10T08:48:27.395Z,2.20
2019-03-10T08:51:14.155Z,2.50
2019-03-10T08:53:57.004Z,2.40
2019-03-10T08:56:44.793Z,2.27
2019-03-10T08:59:18.796Z,2.17
2019-03-10T09:02:24.605Z,2.30
2019-03-10T09:05:15.627Z,2.80
2019-03-10T09:07:59.609Z,2.58
2019-03-10T09:10:50.309Z,2.15
2019-03-10T09:13:38.299Z,2.40
2019-03-10T09:16:28.660Z,2.42
2019-03-10T09:19:23.312Z,2.47
2019-03-10T09:22:12.889Z,2.30
2019-03-10T09:25:00.905Z,2.27
2019-03-10T09:27:47.309Z,2.45
2019-03-10T09:30:44.425Z,2.33
2019-03-10T09:33:38.670Z,2.70
2019-03-10T09:36:14.991Z,3.08
2019-03-10T09:39:02.999Z,2.30
2019-03-10T09:41:49.711Z,2.27
2019-03-10T09:44:49.397Z,2.87
2019-03-10T09:47:33.869Z,2.20
2019-03-10T09:50:21.347Z,2.47
2019-03-10T09:53:11.859Z,2.40
2019-03-10T09:58:46.463Z,2.42
2019-03-10T10:01:53.920Z,2.50
2019-03-10T10:04:31.153Z,2.60
2019-03-10T10:07:10.164Z,2.25
2019-03-10T10:09:45.855Z,2.47
2019-03-10T10:12:36.610Z,2.40
2019-03-10T10:15:20.063Z,2.12
2019-03-10T10:18:08.435Z,2.10
2019-03-10T10:20:59.326Z,2.08
2019-03-10T10:24:02.242Z,2.02
2019-03-10T10:27:02.045Z,2.05
2019-03-10T10:29:48.775Z,2.10
2019-03-10T10:32:42.806Z,2.17
2019-03-10T10:35:45.848Z,2.12
2019-03-10T10:38:33.787Z,1.70
2019-03-10T10:41:20.341Z,1.90
2019-03-10T10:44:07.662Z,1.80
2019-03-10T10:46:53.892Z,2.42
2019-03-10T10:49:41.868Z,1.82
2019-03-10T10:52:34.193Z,1.90
2019-03-10T10:55:41.484Z,2.12
2019-03-10T10:58:32.177Z,1.75
2019-03-10T11:01:11.498Z,1.90
2019-03-10T11:04:02.251Z,1.70
2019-03-10T11:06:53.360Z,1.92
2019-03-10T11:09:32.981Z,2.10
2019-03-10T11:12:24.049Z,2.00
2019-03-10T11:15:10.394Z,2.00
2019-03-10T11:17:47.501Z,1.72
2019-03-10T11:20:35.454Z,1.80
2019-03-10T11:23:14.626Z,2.00
2019-03-10T11:25:58.553Z,2.17
2019-03-10T11:29:01.549Z,1.60
2019-03-10T11:31:51.441Z,1.82
2019-03-10T11:34:28.585Z,1.40
2019-03-10T11:37:19.308Z,1.75
2019-03-10T11:39:59.392Z,1.90
2019-03-10T11:43:02.111Z,1.77
2019-03-10T11:45:49.990Z,1.57
2019-03-10T11:48:47.180Z,1.90
2019-03-10T11:51:35.132Z,1.70
2019-03-10T11:54:12.208Z,1.82
2019-03-10T11:57:03.031Z,1.70
2019-03-10T11:59:36.738Z,1.98
2019-03-10T12:02:16.441Z,1.40
2019-03-10T12:05:10.177Z,1.70
2019-03-10T12:07:58.182Z,1.80
2019-03-10T12:10:27.054Z,1.75
2019-03-10T12:12:55.940Z,2.35
2019-03-10T12:15:24.909Z,2.15
2019-03-10T12:17:53.763Z,2.08
2019-03-10T12:20:22.882Z,2.02
2019-03-10T12:22:51.920Z,2.02
2019-03-10T12:25:20.839Z,1.70
2019-03-10T12:27:49.861Z,1.90
2019-03-10T12:30:18.904Z,2.10
2019-03-10T12:32:47.927Z,1.95
2019-03-10T12:35:16.911Z,2.17
2019-03-10T12:37:45.895Z,2.22
2019-03-10T12:40:14.872Z,2.20
2019-03-10T12:42:43.760Z,2.20
2019-03-10T12:45:12.752Z,2.90
2019-03-10T12:47:41.996Z,2.70
2019-03-10T12:50:11.045Z,3.00
2019-03-10T12:52:40.016Z,2.90
2019-03-10T12:55:10.260Z,2.50
2019-03-10T12:57:39.081Z,2.47
2019-03-10T13:00:08.973Z,2.70
2019-03-10T13:02:37.776Z,2.30
2019-03-10T13:05:08.342Z,2.30
2019-03-10T13:07:37.337Z,2.25
2019-03-10T13:10:07.032Z,2.37
2019-03-10T13:12:35.932Z,2.10
2019-03-10T13:15:05.385Z,2.25
2019-03-10T13:17:34.237Z,2.00
2019-03-10T13:20:03.214Z,2.22
2019-03-10T13:22:32.273Z,2.10
2019-03-10T13:25:01.193Z,2.35
2019-03-10T13:27:30.202Z,2.02
2019-03-10T13:30:01.469Z,2.10
2019-03-10T13:32:30.372Z,2.30
2019-03-10T13:34:59.384Z,1.95
2019-03-10T13:37:28.386Z,1.98
2019-03-10T13:39:57.341Z,2.17
2019-03-10T13:42:26.256Z,2.22
2019-03-10T13:44:55.298Z,2.00
2019-03-10T13:47:24.336Z,2.15
2019-03-10T13:49:55.066Z,2.30
2019-03-10T13:52:24.116Z,2.20
2019-03-10T13:54:53.035Z,2.45
2019-03-10T13:57:21.881Z,2.20
2019-03-10T13:59:50.887Z,2.00
2019-03-10T14:02:19.937Z,2.75
2019-03-10T14:04:48.915Z,1.95
2019-03-10T14:07:17.876Z,2.12
2019-03-10T14:09:46.901Z,2.35
2019-03-10T14:12:15.784Z,2.55
2019-03-10T14:14:44.711Z,2.80
2019-03-10T14:17:14.171Z,2.65
2019-03-10T14:19:43.278Z,2.47
2019-03-10T14:22:12.410Z,2.58
2019-03-10T14:24:41.316Z,2.95
2019-03-10T14:27:10.227Z,2.50
2019-03-10T14:29:39.234Z,2.55
2019-03-10T14:32:08.270Z,2.60
2019-03-10T14:34:37.270Z,2.55
2019-03-10T14:37:06.287Z,3.02
2019-03-10T14:39:36.578Z,2.87
2019-03-10T14:42:05.590Z,2.35
2019-03-10T14:44:35.170Z,2.37
2019-03-10T14:47:04.074Z,2.40
2019-03-10T14:49:33.098Z,2.60
2019-03-10T14:52:02.108Z,2.70
2019-03-10T14:54:31.118Z,2.83
2019-03-10T14:57:02.621Z,2.60
2019-03-10T14:59:30.704Z,2.40
2019-03-10T15:02:00.433Z,2.47
2019-03-10T15:04:29.403Z,2.70
2019-03-10T15:06:58.391Z,2.90
2019-03-10T15:09:27.298Z,2.33
2019-03-10T15:11:56.285Z,2.40
2019-03-10T15:14:25.355Z,3.25
2019-03-10T15:17:01.649Z,2.83
2019-03-10T15:19:25.274Z,2.35
2019-03-10T15:21:54.264Z,3.30
2019-03-10T15:24:23.310Z,2.85
2019-03-10T15:26:52.307Z,2.58
2019-03-10T15:29:21.430Z,2.15
2019-03-10T15:31:50.334Z,2.70
2019-03-10T15:34:21.639Z,2.27
2019-03-10T15:36:49.994Z,2.35
2019-03-10T15:39:18.929Z,2.37
2019-03-10T15:41:47.933Z,2.40
2019-03-10T15:44:17.010Z,2.15
2019-03-10T15:46:46.007Z,2.77
2019-03-10T15:49:14.952Z,2.17
2019-03-10T15:51:43.995Z,2.65
2019-03-10T15:54:12.992Z,2.40
2019-03-10T15:56:42.087Z,2.27
2019-03-10T15:59:11.021Z,2.25
2019-03-10T16:01:40.041Z,2.40
2019-03-10T16:04:20.119Z,2.37
2019-03-10T16:06:48.959Z,2.00
2019-03-10T16:09:18.054Z,2.40
2019-03-10T16:11:47.087Z,2.98
2019-03-10T16:14:15.998Z,2.30
2019-03-10T16:16:44.789Z,1.95
2019-03-10T16:19:13.689Z,2.55
2019-03-10T16:21:42.622Z,2.17
2019-03-10T16:24:11.904Z,1.90
2019-03-10T16:26:41.022Z,1.80
2019-03-10T16:29:09.854Z,2.15
2019-03-10T16:31:39.133Z,1.90
2019-03-10T16:34:08.120Z,2.35
2019-03-10T16:36:37.008Z,2.10
2019-03-10T16:39:08.194Z,2.15
2019-03-10T16:41:37.463Z,2.50
2019-03-10T16:44:06.372Z,2.02
2019-03-10T16:46:35.320Z,2.37
2019-03-10T16:49:04.294Z,2.12
2019-03-10T16:51:33.290Z,1.95
2019-03-10T16:54:02.225Z,2.02
2019-03-10T16:56:31.860Z,1.70
2019-03-10T16:59:02.034Z,1.87
2019-03-10T17:01:31.385Z,1.95
2019-03-10T17:04:00.345Z,1.75
2019-03-10T17:06:29.387Z,1.82
2019-03-10T17:08:58.431Z,1.50
2019-03-10T17:11:27.463Z,1.82
2019-03-10T17:14:04.401Z,1.80
2019-03-10T17:16:33.411Z,1.90
2019-03-10T17:19:02.421Z,1.90
2019-03-10T17:21:31.424Z,1.45
2019-03-10T17:24:00.435Z,1.45
2019-03-10T17:26:29.435Z,1.35
2019-03-10T17:28:58.553Z,1.50
2019-03-10T17:31:27.447Z,1.50
2019-03-10T17:33:56.414Z,1.50
2019-03-10T17:36:25.459Z,1.62
2019-03-10T17:38:54.289Z,1.30
2019-03-10T17:41:23.444Z,1.27
2019-03-10T17:43:52.543Z,1.12
2019-03-10T17:46:21.549Z,1.22
2019-03-10T17:48:50.557Z,1.10
2019-03-10T17:51:19.610Z,1.05
2019-03-10T17:53:48.569Z,1.00
2019-03-10T17:56:17.586Z,0.93
2019-03-10T17:58:46.639Z,1.05
2019-03-10T18:01:15.600Z,1.00
2019-03-10T18:03:44.444Z,0.93
2019-03-10T18:06:13.383Z,0.90
2019-03-10T18:08:42.270Z,1.30
2019-03-10T18:11:11.161Z,0.80
2019-03-10T18:13:40.096Z,0.90
2019-03-10T18:16:09.137Z,0.88
2019-03-10T18:18:37.980Z,0.93
2019-03-10T18:21:25.985Z,0.80
2019-03-10T18:23:54.910Z,0.80
2019-03-10T18:26:24.058Z,0.70
2019-03-10T18:28:53.024Z,0.80
2019-03-10T18:31:22.037Z,0.80
2019-03-10T18:33:50.960Z,0.70
2019-03-10T18:36:19.884Z,0.95
2019-03-10T18:38:48.743Z,0.75
2019-03-10T18:41:17.826Z,0.70
2019-03-10T18:43:46.771Z,0.80
2019-03-10T18:46:15.786Z,0.70
2019-03-10T18:48:44.573Z,0.95
2019-03-10T18:51:13.471Z,0.80
2019-03-10T18:53:42.338Z,0.70
2019-03-10T18:56:11.351Z,0.78
2019-03-10T18:58:40.306Z,0.70
2019-03-10T19:01:09.328Z,0.80
2019-03-10T19:03:38.455Z,0.80
2019-03-10T19:06:07.456Z,0.70
2019-03-10T19:08:36.492Z,0.82
2019-03-10T19:11:05.547Z,0.85
2019-03-10T19:13:34.702Z,0.70
2019-03-10T19:16:03.534Z,0.85
2019-03-10T19:18:32.483Z,0.90
2019-03-10T19:21:01.492Z,0.95
2019-03-10T19:23:30.517Z,0.70
2019-03-10T19:25:59.349Z,0.70
2019-03-10T19:28:28.177Z,0.72
2019-03-10T19:30:57.109Z,0.70
2019-03-10T19:33:26.079Z,0.72
2019-03-10T19:35:55.202Z,0.75
2019-03-10T19:38:24.092Z,0.80
2019-03-10T19:40:53.201Z,0.90
2019-03-10T19:43:22.237Z,0.72
2019-03-10T19:45:51.215Z,0.70
2019-03-10T19:48:20.246Z,0.70
2019-03-10T19:50:49.217Z,0.80
2019-03-10T19:53:18.259Z,0.80
2019-03-10T19:55:47.282Z,0.80
2019-03-10T19:58:16.265Z,0.85
2019-03-10T20:00:45.221Z,0.78
2019-03-10T20:03:14.260Z,0.68
2019-03-10T20:05:43.335Z,0.70
2019-03-10T20:08:12.456Z,0.78
2019-03-10T20:10:42.566Z,0.78
2019-03-10T20:13:12.620Z,0.80
2019-03-10T20:15:41.457Z,0.70
2019-03-10T20:18:11.261Z,0.90
2019-03-10T20:20:40.093Z,0.78
2019-03-10T20:23:09.098Z,0.75
2019-03-10T20:25:38.357Z,0.80
2019-03-10T20:28:09.237Z,0.80
2019-03-10T20:30:37.932Z,0.70
2019-03-10T20:33:06.948Z,0.80
2019-03-10T20:35:35.937Z,0.90
2019-03-10T20:38:04.959Z,0.75
2019-03-10T20:40:34.068Z,0.90
2019-03-10T20:43:03.224Z,0.80
2019-03-10T20:45:32.592Z,0.80
2019-03-10T20:48:01.533Z,0.70
2019-03-10T20:50:30.576Z,0.70
2019-03-10T20:52:59.613Z,0.85
2019-03-10T20:55:28.682Z,0.72
2019-03-10T20:57:57.591Z,0.60
2019-03-10T21:00:26.566Z,0.70
2019-03-10T21:02:55.320Z,0.80
2019-03-10T21:05:24.195Z,0.70
2019-03-10T21:07:53.144Z,0.82
2019-03-10T21:10:22.183Z,0.60
2019-03-10T21:12:51.359Z,0.70
2019-03-10T21:15:20.264Z,0.57
2019-03-10T21:17:49.280Z,0.80
2019-03-10T21:20:18.477Z,0.80
2019-03-10T21:22:47.734Z,0.60
2019-03-10T21:25:18.772Z,0.70
2019-03-10T21:27:47.689Z,0.60
2019-03-10T21:30:18.572Z,0.53
2019-03-10T21:32:47.528Z,0.80
2019-03-10T21:35:17.856Z,0.62
2019-03-10T21:37:47.294Z,0.78
2019-03-10T21:40:17.928Z,0.72
2019-03-10T21:42:46.839Z,0.90
2019-03-10T21:45:15.997Z,0.75
2019-03-10T21:47:44.856Z,1.00
2019-03-10T21:50:14.345Z,0.80
2019-03-10T21:52:43.581Z,0.95
2019-03-10T21:55:12.928Z,1.00
2019-03-10T21:57:41.929Z,0.80
2019-03-10T22:00:12.268Z,1.22
2019-03-10T22:05:10.043Z,1.20
2019-03-10T22:07:38.943Z,1.00
2019-03-10T22:10:08.916Z,1.20
2019-03-10T22:12:38.034Z,1.35
2019-03-10T22:15:08.721Z,1.20
2019-03-10T22:17:38.110Z,1.30
2019-03-10T22:20:07.432Z,1.25
2019-03-10T22:22:47.948Z,1.57
2019-03-10T22:25:12.809Z,1.55
2019-03-10T22:27:38.098Z,1.22
2019-03-10T22:30:07.832Z,1.22
2019-03-10T22:32:37.130Z,1.40
2019-03-10T22:35:06.272Z,1.45
2019-03-10T22:37:35.521Z,1.52
2019-03-10T22:40:04.748Z,1.40
2019-03-10T22:42:33.980Z,1.60
2019-03-10T22:47:51.257Z,1.60
2019-03-10T22:50:20.338Z,1.35
2019-03-10T22:52:49.311Z,1.55
2019-03-10T22:55:18.493Z,1.32
2019-03-10T22:57:47.621Z,1.50
2019-03-10T23:00:20.316Z,1.40
2019-03-10T23:02:49.420Z,1.30
2019-03-10T23:05:18.570Z,1.20
2019-03-10T23:07:47.551Z,1.32
2019-03-10T23:10:16.569Z,1.00
2019-03-10T23:12:45.584Z,1.10
2019-03-10T23:15:14.579Z,1.25
2019-03-10T23:17:43.592Z,1.15
2019-03-10T23:20:13.300Z,1.10
2019-03-10T23:22:42.420Z,1.30
2019-03-10T23:25:11.783Z,0.90
2019-03-10T23:27:41.070Z,0.93
2019-03-10T23:30:11.645Z,1.00
2019-03-10T23:32:40.659Z,1.05
2019-03-10T23:35:09.671Z,1.10
2019-03-10T23:37:38.687Z,0.90
2019-03-10T23:40:08.166Z,0.80
2019-03-10T23:42:37.465Z,0.90
2019-03-10T23:45:06.887Z,0.90
2019-03-10T23:47:36.222Z,1.10
2019-03-10T23:50:05.454Z,0.80
2019-03-10T23:52:34.633Z,1.00
2019-03-10T23:55:03.612Z,1.20
2019-03-10T23:57:32.588Z,0.90
